KLWT/LWT METAR and TAF weather

Enter ICAO airport designator
Station Type Date Time Source
KLWT METAR 2019/12/06 13:54 UTC NOAA

KLWT 061354Z AUTO 24009KT 10SM CLR M02/M06 A3001 RMK AO2 SLP197 T10221061


Station Type Date Time Source
KLWT Decoded METAR 2019/12/06 13:54 UTC NOAA

LEWISTOWN MUNICIPAL AIRPORT , MT, United States (KLWT) 47-03N 109-27W
Dec 06, 2019 - 08:54 AM EST / 2019.12.06 1354 UTC
Wind: from the WSW (240 degrees) at 10 MPH (9 KT):0
Visibility: 10 mile(s):0
Sky conditions: clear
Temperature: 28.0 F (-2.2 C)
Windchill: 19 F (-7 C):1
Dew Point: 21.0 F (-6.1 C)
Relative Humidity: 74%
Pressure (altimeter): 30.01 in. Hg (1016 hPa)
ob: KLWT 061354Z AUTO 24009KT 10SM CLR M02/M06 A3001 RMK AO2 SLP197 T10221061
cycle: 14

Station Type Date Time Source
KLWT TAF 2019/12/06 12:36 UTC NOAA

TAF KLWT 061134Z 0612/0712 VRB05KT P6SM SCT100
FM062000 22009KT P6SM BKN120

Example: see airport list